createdAt,value
2018-01-25T00:00:52.114Z,9.94
2018-01-25T00:03:21.417Z,9.96
2018-01-25T00:05:51.170Z,9.85
2018-01-25T00:08:20.553Z,9.80
2018-01-25T00:10:49.939Z,9.74
2018-01-25T00:13:21.575Z,9.96
2018-01-25T00:15:51.166Z,9.83
2018-01-25T00:18:20.475Z,9.84
2018-01-25T00:20:50.305Z,9.85
2018-01-25T00:23:19.645Z,9.94
2018-01-25T00:25:49.031Z,9.84
2018-01-25T00:28:18.801Z,9.89
2018-01-25T00:30:48.108Z,9.75
2018-01-25T00:33:17.470Z,9.78
2018-01-25T00:35:47.125Z,9.88
2018-01-25T00:38:16.766Z,9.75
2018-01-25T00:40:46.350Z,9.91
2018-01-25T00:43:15.962Z,9.97
2018-01-25T00:45:45.255Z,9.90
2018-01-25T00:48:14.539Z,9.88
2018-01-25T00:50:43.813Z,10.00
2018-01-25T00:53:14.010Z,10.12
2018-01-25T00:55:43.297Z,9.98
2018-01-25T00:58:12.937Z,10.10
2018-01-25T01:00:42.233Z,9.97
2018-01-25T01:03:11.597Z,9.77
2018-01-25T01:05:41.373Z,9.70
2018-01-25T01:08:10.685Z,9.96
2018-01-25T01:10:39.960Z,9.63
2018-01-25T01:13:09.291Z,9.67
2018-01-25T01:15:38.896Z,9.68
2018-01-25T01:18:08.158Z,9.81
2018-01-25T01:20:37.478Z,9.63
2018-01-25T01:23:06.817Z,9.72
2018-01-25T01:25:36.542Z,9.74
2018-01-25T01:28:06.077Z,9.58
2018-01-25T01:30:35.360Z,9.58
2018-01-25T01:33:05.046Z,9.63
2018-01-25T01:35:34.361Z,9.57
2018-01-25T01:38:03.618Z,9.63
2018-01-25T01:40:32.918Z,9.64
2018-01-25T01:43:02.611Z,9.65
2018-01-25T01:45:32.642Z,9.60
2018-01-25T01:48:02.222Z,9.71
2018-01-25T01:50:32.733Z,9.61
2018-01-25T01:53:03.170Z,9.53
2018-01-25T01:55:32.631Z,9.58
2018-01-25T01:58:02.219Z,9.59
2018-01-25T02:00:31.785Z,9.57
2018-01-25T02:03:01.057Z,9.64
2018-01-25T02:05:31.037Z,9.65
2018-01-25T02:08:00.378Z,9.55
2018-01-25T02:10:31.037Z,9.58
2018-01-25T02:13:00.352Z,9.77
2018-01-25T02:15:30.512Z,9.54
2018-01-25T02:17:59.913Z,9.67
2018-01-25T02:20:29.198Z,9.61
2018-01-25T02:22:58.907Z,9.67
2018-01-25T02:25:30.617Z,9.75
2018-01-25T02:28:00.058Z,9.72
2018-01-25T02:30:29.415Z,9.74
2018-01-25T02:32:58.754Z,9.77
2018-01-25T02:35:28.286Z,9.77
2018-01-25T02:37:57.918Z,9.74
2018-01-25T02:40:27.226Z,9.76
2018-01-25T02:42:56.577Z,9.85
2018-01-25T02:45:27.296Z,9.89
2018-01-25T02:47:56.622Z,9.95
2018-01-25T02:50:25.922Z,9.99
2018-01-25T02:52:55.502Z,10.02
2018-01-25T02:55:24.893Z,10.00
2018-01-25T02:57:54.497Z,10.10
2018-01-25T03:00:24.121Z,10.07
2018-01-25T03:02:53.681Z,10.14
2018-01-25T03:05:23.026Z,10.09
2018-01-25T03:07:52.454Z,10.15
2018-01-25T03:10:22.062Z,10.25
2018-01-25T03:12:51.613Z,10.21
2018-01-25T03:15:20.899Z,10.12
2018-01-25T03:17:50.542Z,10.05
2018-01-25T03:20:19.786Z,10.16
2018-01-25T03:22:49.071Z,10.19
2018-01-25T03:25:18.378Z,10.21
2018-01-25T03:27:47.649Z,10.20
2018-01-25T03:30:17.285Z,10.27
2018-01-25T03:32:46.542Z,10.24
2018-01-25T03:35:15.831Z,10.22
2018-01-25T03:37:45.145Z,10.21
2018-01-25T03:40:14.474Z,10.24
2018-01-25T03:42:43.768Z,10.32
2018-01-25T03:45:13.220Z,10.11
2018-01-25T03:47:42.737Z,10.08
2018-01-25T03:50:12.019Z,10.15
2018-01-25T03:52:41.402Z,10.15
2018-01-25T03:55:10.968Z,10.23
2018-01-25T03:57:40.338Z,10.25
2018-01-25T04:00:09.647Z,10.29
2018-01-25T04:02:39.040Z,10.24
2018-01-25T04:05:08.409Z,10.24
2018-01-25T04:07:37.717Z,10.44
2018-01-25T04:10:07.115Z,10.38
2018-01-25T04:12:36.717Z,10.36
2018-01-25T04:15:06.846Z,10.21
2018-01-25T04:17:36.207Z,10.32
2018-01-25T04:20:05.834Z,10.49
2018-01-25T04:22:35.214Z,10.29
2018-01-25T04:25:04.517Z,10.25
2018-01-25T04:27:34.063Z,10.34
2018-01-25T04:30:03.357Z,10.24
2018-01-25T04:32:32.650Z,10.29
2018-01-25T04:35:02.229Z,10.37
2018-01-25T04:37:31.897Z,10.20
2018-01-25T04:40:01.399Z,10.47
2018-01-25T04:42:30.753Z,10.24
2018-01-25T04:45:00.351Z,10.22
2018-01-25T04:47:30.790Z,10.39
2018-01-25T04:50:00.411Z,10.24
2018-01-25T04:52:32.952Z,10.21
2018-01-25T04:55:02.323Z,10.19
2018-01-25T04:57:32.293Z,10.27
2018-01-25T05:00:01.664Z,10.25
2018-01-25T05:05:05.818Z,10.11
2018-01-25T05:07:35.405Z,10.19
2018-01-25T05:10:04.951Z,10.04
2018-01-25T05:12:34.265Z,10.01
2018-01-25T05:15:03.750Z,10.03
2018-01-25T05:17:33.395Z,10.09
2018-01-25T05:20:02.938Z,10.16
2018-01-25T05:22:33.171Z,10.03
2018-01-25T05:25:03.402Z,10.01
2018-01-25T05:27:32.773Z,9.97
2018-01-25T05:30:03.950Z,10.05
2018-01-25T05:32:33.574Z,9.98
2018-01-25T05:35:04.461Z,9.96
2018-01-25T05:37:36.530Z,9.92
2018-01-25T05:40:05.941Z,9.89
2018-01-25T05:42:35.207Z,9.91
2018-01-25T05:45:05.093Z,9.96
2018-01-25T05:47:35.350Z,9.83
2018-01-25T05:50:04.855Z,9.88
2018-01-25T05:52:34.331Z,9.88
2018-01-25T05:55:03.622Z,9.88
2018-01-25T05:57:33.053Z,9.85
2018-01-25T06:00:02.932Z,9.89
2018-01-25T06:02:32.199Z,9.90
2018-01-25T06:05:01.545Z,9.94
2018-01-25T06:07:31.119Z,9.86
2018-01-25T06:10:00.516Z,9.93
2018-01-25T06:12:29.897Z,9.98
2018-01-25T06:14:59.297Z,9.94
2018-01-25T06:17:28.745Z,9.98
2018-01-25T06:19:58.141Z,9.90
2018-01-25T06:22:27.590Z,10.09
2018-01-25T06:24:56.895Z,9.96
2018-01-25T06:27:26.315Z,10.15
2018-01-25T06:29:56.030Z,10.23
2018-01-25T06:32:25.495Z,10.03
2018-01-25T06:34:54.763Z,10.05
2018-01-25T06:37:24.174Z,9.95
2018-01-25T06:39:53.537Z,9.98
2018-01-25T06:42:22.842Z,10.24
2018-01-25T06:44:52.962Z,9.95
2018-01-25T06:47:23.011Z,10.05
2018-01-25T06:49:52.326Z,10.06
2018-01-25T06:52:21.942Z,10.03
2018-01-25T06:54:51.245Z,10.13
2018-01-25T06:57:20.621Z,10.14
2018-01-25T06:59:50.220Z,10.21
2018-01-25T07:02:19.593Z,10.14
2018-01-25T07:04:48.953Z,10.26
2018-01-25T07:07:18.645Z,10.32
2018-01-25T07:09:47.965Z,10.30
2018-01-25T07:12:17.277Z,10.20
2018-01-25T07:14:47.106Z,10.16
2018-01-25T07:17:16.486Z,10.32
2018-01-25T07:19:45.781Z,10.32
2018-01-25T07:22:15.243Z,10.36
2018-01-25T07:24:44.566Z,10.26
2018-01-25T07:27:14.148Z,10.37
2018-01-25T07:29:43.757Z,10.52
2018-01-25T07:32:13.046Z,10.47
2018-01-25T07:34:42.370Z,10.48
2018-01-25T07:37:12.010Z,10.49
2018-01-25T07:39:41.296Z,10.43
2018-01-25T07:42:10.678Z,10.42
2018-01-25T07:44:40.746Z,10.47
2018-01-25T07:47:10.133Z,10.60
2018-01-25T07:49:39.650Z,10.53
2018-01-25T07:52:09.134Z,10.49
2018-01-25T07:54:38.601Z,10.60
2018-01-25T07:57:11.964Z,10.48
2018-01-25T07:59:41.546Z,10.80
2018-01-25T08:02:11.330Z,10.75
2018-01-25T08:04:40.622Z,10.58
2018-01-25T08:07:10.466Z,10.59
2018-01-25T08:09:39.853Z,10.63
2018-01-25T08:12:09.105Z,10.78
2018-01-25T08:14:38.494Z,10.58
2018-01-25T08:17:07.778Z,10.64
2018-01-25T08:21:01.749Z,10.91
2018-01-25T08:23:31.142Z,10.56
2018-01-25T08:26:00.782Z,10.76
2018-01-25T08:28:30.122Z,10.67
2018-01-25T08:30:59.481Z,10.91
2018-01-25T08:33:32.221Z,10.69
2018-01-25T08:36:02.253Z,10.56
2018-01-25T08:38:31.862Z,10.66
2018-01-25T08:41:01.151Z,10.74
2018-01-25T08:43:30.797Z,10.86
2018-01-25T08:46:00.050Z,10.83
2018-01-25T08:48:30.794Z,10.83
2018-01-25T08:51:00.803Z,11.06
2018-01-25T08:53:30.081Z,10.89
2018-01-25T08:55:59.412Z,10.81
2018-01-25T08:58:32.960Z,10.91
2018-01-25T09:01:02.653Z,10.96
2018-01-25T09:03:31.946Z,11.09
2018-01-25T09:06:01.693Z,11.07
2018-01-25T09:08:30.970Z,10.92
2018-01-25T09:11:00.506Z,11.11
2018-01-25T09:13:30.869Z,10.82
2018-01-25T09:16:00.650Z,10.96
2018-01-25T09:18:31.055Z,10.96
2018-01-25T09:21:00.670Z,10.97
2018-01-25T09:23:30.996Z,10.93
2018-01-25T09:26:00.537Z,10.96
2018-01-25T09:28:31.281Z,10.78
2018-01-25T09:31:00.617Z,10.87
2018-01-25T09:33:31.317Z,10.75
2018-01-25T09:36:01.047Z,11.06
2018-01-25T09:38:30.448Z,10.84
2018-01-25T09:41:00.126Z,11.02
2018-01-25T09:43:31.573Z,10.92
2018-01-25T09:46:00.854Z,10.87
2018-01-25T09:48:31.477Z,10.97
2018-01-25T09:51:01.045Z,10.96
2018-01-25T09:53:31.509Z,10.92
2018-01-25T09:56:00.772Z,11.12
2018-01-25T09:58:31.707Z,10.84
2018-01-25T10:01:01.284Z,11.11
2018-01-25T10:03:30.589Z,11.15
2018-01-25T10:06:00.434Z,11.12
2018-01-25T10:08:30.449Z,11.03
2018-01-25T10:10:59.882Z,11.01
2018-01-25T10:13:33.286Z,11.14
2018-01-25T10:16:03.081Z,11.13
2018-01-25T10:18:32.424Z,11.08
2018-01-25T10:21:02.026Z,11.09
2018-01-25T10:23:31.669Z,11.12
2018-01-25T10:26:00.952Z,11.12
2018-01-25T10:28:30.597Z,11.10
2018-01-25T10:30:59.934Z,11.29
2018-01-25T10:33:29.342Z,11.30
2018-01-25T10:35:59.074Z,11.20
2018-01-25T10:38:28.370Z,11.26
2018-01-25T10:40:57.760Z,11.09
2018-01-25T10:43:27.113Z,11.36
2018-01-25T10:45:56.677Z,11.19
2018-01-25T10:48:28.308Z,11.03
2018-01-25T10:50:57.970Z,11.04
2018-01-25T10:53:29.362Z,11.11
2018-01-25T10:55:58.752Z,11.05
2018-01-25T10:58:28.317Z,11.47
2018-01-25T11:01:01.636Z,11.21
2018-01-25T11:03:30.974Z,11.30
2018-01-25T11:06:00.535Z,11.08
2018-01-25T11:08:29.858Z,11.04
2018-01-25T11:10:59.215Z,11.03
2018-01-25T11:13:30.612Z,11.09
2018-01-25T11:15:59.998Z,11.12
2018-01-25T11:18:29.398Z,11.18
2018-01-25T11:20:58.717Z,11.09
2018-01-25T11:23:28.030Z,11.14
2018-01-25T11:25:57.717Z,11.10
2018-01-25T11:28:27.027Z,11.28
2018-01-25T11:30:56.308Z,11.10
2018-01-25T11:33:25.917Z,11.24
2018-01-25T11:35:55.198Z,11.06
2018-01-25T11:38:24.646Z,11.01
2018-01-25T11:40:53.952Z,10.94
2018-01-25T11:43:23.319Z,10.97
2018-01-25T11:45:52.571Z,10.91
2018-01-25T11:48:22.149Z,10.83
2018-01-25T11:50:51.465Z,10.84
2018-01-25T11:53:20.942Z,10.93
2018-01-25T11:55:50.494Z,10.79
2018-01-25T11:58:19.866Z,10.82
2018-01-25T12:00:49.145Z,10.77
2018-01-25T12:03:18.850Z,10.81
2018-01-25T12:05:48.122Z,10.82
2018-01-25T12:08:17.510Z,10.97
2018-01-25T12:10:47.148Z,10.90
2018-01-25T12:13:16.530Z,10.93
2018-01-25T12:15:46.361Z,11.08
2018-01-25T12:18:15.794Z,11.07
2018-01-25T12:20:45.063Z,10.93
2018-01-25T12:23:14.853Z,11.08
2018-01-25T12:25:44.554Z,11.19
2018-01-25T12:28:14.618Z,11.20
2018-01-25T12:30:44.237Z,11.24
2018-01-25T12:33:13.749Z,11.00
2018-01-25T12:35:43.129Z,11.26
2018-01-25T12:38:12.638Z,11.19
2018-01-25T12:40:42.006Z,11.28
2018-01-25T12:43:11.367Z,11.41
2018-01-25T12:45:40.689Z,11.23
2018-01-25T12:48:10.448Z,11.12
2018-01-25T12:50:39.846Z,11.44
2018-01-25T12:53:09.250Z,10.99
2018-01-25T12:55:38.920Z,11.24
2018-01-25T12:58:08.457Z,11.27
2018-01-25T13:00:37.934Z,11.58
2018-01-25T13:03:07.653Z,11.55
2018-01-25T13:05:37.133Z,11.47
2018-01-25T13:08:06.622Z,11.44
2018-01-25T13:10:36.294Z,11.28
2018-01-25T13:13:05.717Z,11.39
2018-01-25T13:15:35.882Z,11.16
2018-01-25T13:18:05.442Z,11.09
2018-01-25T13:20:34.866Z,10.84
2018-01-25T13:23:04.181Z,10.79
2018-01-25T13:25:33.927Z,9.84
2018-01-25T13:28:03.923Z,9.79
2018-01-25T13:30:33.613Z,9.23
2018-01-25T13:33:07.366Z,9.08
2018-01-25T13:35:37.077Z,8.92
2018-01-25T13:38:06.843Z,8.82
2018-01-25T13:40:36.745Z,8.73
2018-01-25T13:43:06.625Z,8.64
2018-01-25T13:45:36.637Z,8.72
2018-01-25T13:48:07.296Z,8.87
2018-01-25T13:50:38.241Z,8.62
2018-01-25T13:53:08.810Z,8.53
2018-01-25T13:55:38.290Z,8.78
2018-01-25T13:58:07.617Z,8.84
2018-01-25T14:00:40.791Z,9.27
2018-01-25T14:03:10.941Z,9.70
2018-01-25T14:05:40.316Z,9.87
2018-01-25T14:08:10.557Z,10.01
2018-01-25T14:10:39.962Z,9.99
2018-01-25T14:13:09.475Z,9.50
2018-01-25T14:15:39.170Z,10.03
2018-01-25T14:18:09.399Z,9.90
2018-01-25T14:20:39.048Z,10.13
2018-01-25T14:23:08.437Z,10.16
2018-01-25T14:25:38.569Z,10.20
2018-01-25T14:28:08.140Z,10.18
2018-01-25T14:30:37.685Z,10.26
2018-01-25T14:33:07.627Z,10.11
2018-01-25T14:35:37.246Z,10.42
2018-01-25T14:38:07.609Z,10.27
2018-01-25T14:40:37.474Z,10.46
2018-01-25T14:43:07.238Z,10.33
2018-01-25T14:45:36.555Z,9.79
2018-01-25T14:48:06.306Z,10.25
2018-01-25T14:50:35.722Z,10.15
2018-01-25T14:53:05.241Z,10.33
2018-01-25T14:55:34.958Z,10.10
2018-01-25T14:58:04.525Z,10.34
2018-01-25T15:00:33.898Z,10.31
2018-01-25T15:03:05.349Z,10.25
2018-01-25T15:05:34.737Z,10.12
2018-01-25T15:08:04.245Z,10.21
2018-01-25T15:10:33.874Z,10.12
2018-01-25T15:13:03.303Z,10.15
2018-01-25T15:15:32.662Z,10.38
2018-01-25T15:18:02.188Z,10.09
2018-01-25T15:20:31.721Z,10.09
2018-01-25T15:23:01.074Z,10.11
2018-01-25T15:25:35.099Z,10.13
2018-01-25T15:28:04.674Z,10.08
2018-01-25T15:30:34.947Z,10.09
2018-01-25T15:33:04.535Z,9.91
2018-01-25T15:35:34.786Z,10.16
2018-01-25T15:38:04.912Z,10.21
2018-01-25T15:40:34.603Z,10.17
2018-01-25T15:43:04.178Z,10.13
2018-01-25T15:45:33.968Z,10.12
2018-01-25T15:48:04.073Z,10.14
2018-01-25T15:50:33.509Z,10.16
2018-01-25T15:53:03.267Z,10.01
2018-01-25T15:55:33.022Z,10.01
2018-01-25T15:58:02.457Z,10.10
2018-01-25T16:00:32.423Z,10.12
2018-01-25T16:03:01.917Z,10.03
2018-01-25T16:05:31.357Z,10.05
2018-01-25T16:08:01.242Z,10.02
2018-01-25T16:10:31.633Z,9.92
2018-01-25T16:13:01.022Z,10.00
2018-01-25T16:15:31.324Z,10.04
2018-01-25T16:18:02.202Z,9.98
2018-01-25T16:20:31.658Z,9.96
2018-01-25T16:23:01.177Z,9.92
2018-01-25T16:25:30.717Z,10.01
2018-01-25T16:28:00.836Z,9.99
2018-01-25T16:30:30.798Z,9.58
2018-01-25T16:33:00.134Z,9.56
2018-01-25T16:35:29.514Z,9.82
2018-01-25T16:37:59.415Z,9.95
2018-01-25T16:40:29.096Z,10.08
2018-01-25T16:42:58.555Z,9.91
2018-01-25T16:45:29.248Z,9.84
2018-01-25T16:48:00.309Z,9.88
2018-01-25T16:50:29.690Z,9.93
2018-01-25T16:52:59.980Z,10.08
2018-01-25T16:55:29.466Z,10.01
2018-01-25T16:57:58.973Z,9.76
2018-01-25T17:00:28.919Z,9.78
2018-01-25T17:04:24.889Z,9.74
2018-01-25T17:06:56.318Z,9.52
2018-01-25T17:09:25.733Z,9.61
2018-01-25T17:11:55.647Z,9.64
2018-01-25T17:14:28.844Z,9.71
2018-01-25T17:16:59.304Z,9.62
2018-01-25T17:19:29.295Z,9.58
2018-01-25T17:21:59.558Z,9.34
2018-01-25T17:24:29.014Z,9.34
2018-01-25T17:26:58.717Z,9.26
2018-01-25T17:29:28.871Z,9.32
2018-01-25T17:31:58.498Z,9.53
2018-01-25T17:34:27.887Z,9.61
2018-01-25T17:37:00.879Z,9.46
2018-01-25T17:39:30.602Z,9.53
2018-01-25T17:42:00.359Z,9.34
2018-01-25T17:44:30.253Z,9.38
2018-01-25T17:46:59.725Z,9.31
2018-01-25T17:49:29.389Z,9.27
2018-01-25T17:51:59.042Z,9.40
2018-01-25T17:54:29.372Z,9.36
2018-01-25T17:57:00.665Z,9.25
2018-01-25T17:59:48.982Z,9.30
2018-01-25T18:02:18.353Z,9.23
2018-01-25T18:04:48.039Z,9.22
2018-01-25T18:07:19.252Z,9.21
2018-01-25T18:09:49.452Z,9.17
2018-01-25T18:12:20.317Z,9.17
2018-01-25T18:14:49.882Z,9.13
2018-01-25T18:17:19.271Z,9.22
2018-01-25T18:19:48.889Z,9.17
2018-01-25T18:22:18.384Z,9.09
2018-01-25T18:24:48.461Z,8.96
2018-01-25T18:27:18.206Z,9.03
2018-01-25T18:29:48.324Z,9.08
2018-01-25T18:32:17.641Z,9.02
2018-01-25T18:34:47.395Z,9.09
2018-01-25T18:37:17.147Z,9.13
2018-01-25T18:39:46.926Z,9.11
2018-01-25T18:42:16.626Z,9.17
2018-01-25T18:44:46.111Z,9.12
2018-01-25T18:47:15.450Z,9.16
2018-01-25T18:49:45.210Z,9.12
2018-01-25T18:52:14.561Z,9.06
2018-01-25T18:54:44.043Z,9.07
2018-01-25T18:57:14.021Z,9.03
2018-01-25T18:59:43.488Z,8.96
2018-01-25T19:02:13.674Z,8.89
2018-01-25T19:04:43.596Z,8.92
2018-01-25T19:07:13.196Z,9.06
2018-01-25T19:09:42.762Z,9.03
2018-01-25T19:12:12.493Z,8.96
2018-01-25T19:14:42.121Z,8.97
2018-01-25T19:17:11.810Z,9.10
2018-01-25T19:19:41.421Z,8.94
2018-01-25T19:22:10.747Z,9.10
2018-01-25T19:24:40.082Z,9.09
2018-01-25T19:27:10.587Z,9.11
2018-01-25T19:29:40.641Z,9.15
2018-01-25T19:32:10.056Z,8.97
2018-01-25T19:34:39.853Z,9.04
2018-01-25T19:37:09.815Z,9.13
2018-01-25T19:39:39.137Z,9.12
2018-01-25T19:42:09.360Z,9.42
2018-01-25T19:44:38.900Z,9.38
2018-01-25T19:47:08.877Z,9.27
2018-01-25T19:49:38.701Z,9.43
2018-01-25T19:52:08.637Z,9.41
2018-01-25T19:54:38.171Z,9.58
2018-01-25T19:57:08.231Z,9.43
2018-01-25T19:59:38.311Z,9.63
2018-01-25T20:02:07.850Z,9.54
2018-01-25T20:04:37.481Z,9.50
2018-01-25T20:07:08.495Z,9.55
2018-01-25T20:09:38.118Z,9.48
2018-01-25T20:12:08.073Z,9.52
2018-01-25T20:14:37.909Z,9.41
2018-01-25T20:17:07.482Z,9.40
2018-01-25T20:19:39.139Z,9.16
2018-01-25T20:22:08.669Z,9.28
2018-01-25T20:24:38.153Z,9.27
2018-01-25T20:27:08.427Z,9.23
2018-01-25T20:29:39.332Z,9.20
2018-01-25T20:32:10.171Z,9.26
2018-01-25T20:34:40.605Z,9.41
2018-01-25T20:37:10.069Z,9.27
2018-01-25T20:39:39.749Z,9.44
2018-01-25T20:42:10.249Z,9.48
2018-01-25T20:44:40.754Z,9.31
2018-01-25T20:47:10.101Z,9.41
2018-01-25T20:49:40.446Z,9.41
2018-01-25T20:52:10.177Z,9.29
2018-01-25T20:54:40.080Z,9.32
2018-01-25T20:57:10.654Z,9.36
2018-01-25T20:59:40.221Z,9.35
2018-01-25T21:02:10.608Z,9.37
2018-01-25T21:04:41.141Z,9.46
2018-01-25T21:07:10.905Z,9.39
2018-01-25T21:09:40.370Z,9.38
2018-01-25T21:12:10.354Z,9.38
2018-01-25T21:14:42.814Z,9.25
2018-01-25T21:17:12.617Z,9.25
2018-01-25T21:19:43.291Z,9.34
2018-01-25T21:22:13.430Z,9.40
2018-01-25T21:24:43.211Z,9.49
2018-01-25T21:27:13.025Z,9.48
2018-01-25T21:29:42.441Z,9.52
2018-01-25T21:32:12.195Z,9.41
2018-01-25T21:34:42.056Z,9.46
2018-01-25T21:37:11.962Z,9.29
2018-01-25T21:39:41.481Z,9.01
2018-01-25T21:42:12.169Z,9.31
2018-01-25T21:44:42.773Z,9.38
2018-01-25T21:47:12.612Z,9.30
2018-01-25T21:49:42.520Z,9.34
2018-01-25T21:52:11.899Z,9.38
2018-01-25T21:54:41.396Z,9.13
2018-01-25T21:57:11.221Z,9.15
2018-01-25T21:59:40.528Z,9.26
2018-01-25T22:02:10.229Z,9.22
2018-01-25T22:04:40.319Z,9.18
2018-01-25T22:07:09.754Z,8.98
2018-01-25T22:09:39.397Z,9.06
2018-01-25T22:12:09.294Z,9.14
2018-01-25T22:14:38.597Z,9.18
2018-01-25T22:17:07.947Z,8.91
2018-01-25T22:19:37.855Z,8.97
2018-01-25T22:22:07.197Z,8.87
2018-01-25T22:24:36.543Z,8.82
2018-01-25T22:27:06.363Z,9.06
2018-01-25T22:29:35.725Z,9.11
2018-01-25T22:32:05.089Z,9.10
2018-01-25T22:34:34.772Z,9.24
2018-01-25T22:37:04.914Z,9.16
2018-01-25T22:39:34.332Z,9.08
2018-01-25T22:42:03.934Z,9.14
2018-01-25T22:44:33.377Z,9.03
2018-01-25T22:47:02.766Z,9.07
2018-01-25T22:49:32.498Z,9.10
2018-01-25T22:52:01.790Z,9.21
2018-01-25T22:54:32.086Z,9.28
2018-01-25T22:57:01.918Z,9.17
2018-01-25T22:59:32.387Z,9.21
2018-01-25T23:02:02.486Z,9.21
2018-01-25T23:04:32.349Z,9.04
2018-01-25T23:07:02.067Z,9.17
2018-01-25T23:09:33.497Z,9.05
2018-01-25T23:12:03.273Z,9.15
2018-01-25T23:14:32.709Z,9.06
2018-01-25T23:17:07.823Z,9.00
2018-01-25T23:19:37.487Z,8.98
2018-01-25T23:22:06.874Z,9.10
2018-01-25T23:24:36.229Z,8.96
2018-01-25T23:27:05.762Z,8.79
2018-01-25T23:29:35.865Z,9.01
2018-01-25T23:32:05.219Z,8.89
2018-01-25T23:34:34.627Z,8.88
2018-01-25T23:37:04.129Z,8.88
2018-01-25T23:39:33.711Z,9.13
2018-01-25T23:42:03.367Z,9.12
2018-01-25T23:44:32.696Z,8.95
2018-01-25T23:47:02.470Z,8.90
2018-01-25T23:49:32.793Z,8.86
2018-01-25T23:52:02.736Z,8.78
2018-01-25T23:54:32.116Z,8.94
2018-01-25T23:57:02.046Z,8.87
2018-01-25T23:59:32.794Z,8.94
